createdAt,value
2022-11-28T00:01:09.022Z,17.97
2022-11-28T00:03:36.360Z,15.90
2022-11-28T00:06:04.809Z,13.70
2022-11-28T00:08:32.299Z,17.03
2022-11-28T00:10:59.514Z,15.70
2022-11-28T00:13:26.607Z,15.93
2022-11-28T00:16:00.270Z,15.03
2022-11-28T00:18:27.669Z,14.27
2022-11-28T00:21:00.082Z,12.73
2022-11-28T00:23:27.239Z,14.33
2022-11-28T00:25:58.543Z,15.20
2022-11-28T00:28:25.670Z,15.13
2022-11-28T00:30:52.790Z,13.33
2022-11-28T00:33:19.923Z,14.93
2022-11-28T00:35:47.113Z,14.87
2022-11-28T00:38:14.249Z,13.97
2022-11-28T00:40:41.336Z,14.63
2022-11-28T00:43:08.507Z,12.70
2022-11-28T00:45:35.622Z,16.87
2022-11-28T00:48:02.785Z,14.20
2022-11-28T00:50:29.866Z,14.60
2022-11-28T00:52:57.034Z,12.10
2022-11-28T00:55:24.173Z,14.87
2022-11-28T00:57:51.285Z,15.07
2022-11-28T01:00:18.574Z,13.27
2022-11-28T01:02:45.757Z,17.13
2022-11-28T01:05:12.900Z,15.40
2022-11-28T01:07:42.399Z,16.27
2022-11-28T01:10:11.114Z,13.13
2022-11-28T01:12:38.319Z,17.70
2022-11-28T01:15:06.322Z,14.70
2022-11-28T01:17:33.451Z,14.13
2022-11-28T01:20:00.600Z,15.37
2022-11-28T01:22:27.722Z,18.60
2022-11-28T01:24:54.883Z,14.90
2022-11-28T01:27:22.034Z,13.30
2022-11-28T01:29:49.160Z,13.23
2022-11-28T01:32:16.277Z,16.90
2022-11-28T01:34:43.507Z,15.57
2022-11-28T01:37:10.827Z,17.60
2022-11-28T01:39:38.183Z,17.03
2022-11-28T01:42:05.264Z,15.53
2022-11-28T01:44:32.375Z,16.73
2022-11-28T01:46:59.564Z,19.93
2022-11-28T01:49:28.636Z,17.50
2022-11-28T01:51:57.147Z,15.80
2022-11-28T01:54:24.277Z,17.40
2022-11-28T01:56:52.935Z,16.77
2022-11-28T01:59:20.138Z,19.13
2022-11-28T02:01:47.269Z,17.03
2022-11-28T02:04:14.608Z,17.50
2022-11-28T02:06:42.432Z,16.27
2022-11-28T02:09:13.499Z,18.53
2022-11-28T02:11:58.234Z,18.80
2022-11-28T02:14:28.377Z,18.70
2022-11-28T02:17:01.579Z,15.97
2022-11-28T02:19:47.273Z,16.50
2022-11-28T02:22:17.691Z,17.93
2022-11-28T02:25:17.508Z,16.17
2022-11-28T02:28:13.779Z,20.10
2022-11-28T02:30:47.146Z,21.30
2022-11-28T02:33:20.060Z,16.87
2022-11-28T02:36:05.736Z,17.93
2022-11-28T02:38:37.807Z,16.30
2022-11-28T02:41:20.275Z,19.37
2022-11-28T02:44:10.763Z,16.97
2022-11-28T02:46:40.949Z,16.67
2022-11-28T02:49:08.915Z,16.83
2022-11-28T02:51:42.861Z,17.47
2022-11-28T02:54:11.170Z,17.00
2022-11-28T02:56:38.322Z,17.50
2022-11-28T02:59:05.738Z,15.70
2022-11-28T03:01:33.934Z,17.47
2022-11-28T03:04:01.034Z,18.43
2022-11-28T03:06:40.422Z,16.60
2022-11-28T03:09:10.602Z,21.40
2022-11-28T03:11:42.444Z,18.70
2022-11-28T03:14:09.505Z,18.73
2022-11-28T03:16:51.719Z,21.90
2022-11-28T03:19:26.735Z,17.33
2022-11-28T03:21:56.859Z,20.57
2022-11-28T03:24:26.377Z,19.50
2022-11-28T03:26:54.654Z,17.17
2022-11-28T03:29:22.774Z,19.67
2022-11-28T03:31:51.697Z,17.93
2022-11-28T03:34:20.619Z,18.67
2022-11-28T03:37:20.424Z,18.20
2022-11-28T03:39:49.273Z,19.47
2022-11-28T03:42:26.291Z,21.73
2022-11-28T03:45:01.957Z,16.83
2022-11-28T03:47:30.522Z,16.23
2022-11-28T03:49:57.839Z,19.83
2022-11-28T03:52:26.258Z,18.20
2022-11-28T03:54:57.733Z,25.40
2022-11-28T03:57:36.785Z,23.83
2022-11-28T04:00:05.349Z,21.07
2022-11-28T04:02:51.379Z,18.27
2022-11-28T04:05:40.149Z,22.57
2022-11-28T04:08:10.118Z,20.00
2022-11-28T04:10:39.080Z,20.70
2022-11-28T04:13:25.684Z,21.87
2022-11-28T04:15:58.704Z,19.00
2022-11-28T04:18:25.809Z,16.13
2022-11-28T04:20:52.898Z,18.17
2022-11-28T04:23:20.509Z,18.90
2022-11-28T04:25:51.527Z,17.83
2022-11-28T04:28:19.650Z,16.90
2022-11-28T04:30:47.939Z,16.37
2022-11-28T04:33:15.149Z,15.80
2022-11-28T04:35:46.671Z,18.57
2022-11-28T04:38:13.758Z,16.90
2022-11-28T04:40:53.111Z,17.57
2022-11-28T04:43:25.203Z,18.77
2022-11-28T04:45:54.091Z,16.47
2022-11-28T04:48:21.486Z,17.90
2022-11-28T04:50:58.296Z,20.53
2022-11-28T04:53:25.820Z,17.53
2022-11-28T04:55:54.501Z,18.20
2022-11-28T04:58:21.566Z,17.37
2022-11-28T05:00:49.299Z,15.97
2022-11-28T05:03:16.403Z,19.77
2022-11-28T05:05:47.506Z,17.90
2022-11-28T05:08:14.622Z,18.20
2022-11-28T05:10:41.856Z,17.53
2022-11-28T05:13:09.037Z,16.83
2022-11-28T05:15:36.207Z,17.87
2022-11-28T05:18:03.302Z,16.97
2022-11-28T05:20:30.422Z,17.10
2022-11-28T05:22:57.564Z,18.20
2022-11-28T05:25:24.715Z,22.57
2022-11-28T05:27:51.808Z,19.77
2022-11-28T05:30:18.960Z,21.40
2022-11-28T05:32:46.139Z,19.97
2022-11-28T05:35:13.311Z,23.00
2022-11-28T05:37:42.852Z,26.40
2022-11-28T05:40:10.084Z,21.60
2022-11-28T05:42:37.365Z,20.67
2022-11-28T05:45:04.698Z,19.80
2022-11-28T05:47:32.353Z,19.43
2022-11-28T05:49:59.447Z,22.07
2022-11-28T05:52:29.514Z,20.07
2022-11-28T05:54:56.698Z,20.40
2022-11-28T05:57:23.778Z,18.20
2022-11-28T05:59:50.871Z,16.40
2022-11-28T06:02:18.052Z,17.80
2022-11-28T06:04:45.293Z,18.53
2022-11-28T06:07:12.507Z,17.57
2022-11-28T06:09:39.660Z,19.87
2022-11-28T06:12:07.002Z,20.53
2022-11-28T06:14:34.139Z,21.50
2022-11-28T06:17:01.568Z,20.70
2022-11-28T06:19:28.873Z,20.67
2022-11-28T06:21:56.511Z,22.70
2022-11-28T06:24:23.655Z,21.80
2022-11-28T06:26:50.793Z,18.67
2022-11-28T06:29:17.905Z,18.97
2022-11-28T06:31:45.208Z,22.87
2022-11-28T06:34:13.087Z,19.10
2022-11-28T06:36:40.373Z,19.37
2022-11-28T06:39:07.572Z,21.50
2022-11-28T06:41:34.680Z,33.60
2022-11-28T06:44:01.930Z,19.13
2022-11-28T06:46:29.114Z,23.53
2022-11-28T06:48:56.317Z,22.30
2022-11-28T06:51:23.475Z,19.90
2022-11-28T06:53:50.606Z,24.13
2022-11-28T06:56:18.697Z,17.73
2022-11-28T06:58:45.887Z,18.90
2022-11-28T07:01:14.445Z,18.83
2022-11-28T07:03:41.746Z,16.70
2022-11-28T07:06:09.153Z,18.10
2022-11-28T07:08:36.457Z,16.60
2022-11-28T07:11:15.616Z,20.70
2022-11-28T07:13:42.991Z,15.80
2022-11-28T07:16:12.822Z,21.07
2022-11-28T07:18:40.049Z,21.23
2022-11-28T07:21:07.253Z,18.80
2022-11-28T07:23:34.346Z,18.73
2022-11-28T07:26:02.198Z,16.37
2022-11-28T07:28:29.547Z,17.73
2022-11-28T07:31:04.054Z,19.10
2022-11-28T07:33:31.334Z,19.67
2022-11-28T07:36:04.777Z,15.90
2022-11-28T07:38:32.101Z,23.60
2022-11-28T07:41:09.088Z,21.60
2022-11-28T07:43:36.174Z,18.13
2022-11-28T07:46:06.786Z,21.50
2022-11-28T07:48:34.345Z,18.27
2022-11-28T07:51:01.771Z,20.20
2022-11-28T07:53:28.860Z,19.00
2022-11-28T07:55:55.986Z,19.37
2022-11-28T07:58:23.134Z,19.43
2022-11-28T08:00:50.286Z,16.33
2022-11-28T08:03:17.415Z,20.37
2022-11-28T08:05:49.478Z,22.40
2022-11-28T08:08:17.479Z,18.40
2022-11-28T08:10:44.661Z,20.50
2022-11-28T08:13:11.860Z,18.37
2022-11-28T08:15:39.414Z,21.40
2022-11-28T08:18:06.959Z,16.77
2022-11-28T08:20:34.145Z,16.60
2022-11-28T08:23:01.294Z,17.73
2022-11-28T08:25:28.521Z,16.97
2022-11-28T08:27:55.667Z,20.20
2022-11-28T08:30:22.784Z,19.37
2022-11-28T08:32:49.989Z,16.30
2022-11-28T08:35:17.173Z,20.97
2022-11-28T08:37:44.252Z,18.47
2022-11-28T08:40:11.507Z,19.80
2022-11-28T08:42:38.592Z,18.53
2022-11-28T08:45:06.496Z,14.53
2022-11-28T08:47:33.582Z,18.23
2022-11-28T08:50:00.675Z,20.30
2022-11-28T08:52:27.892Z,16.03
2022-11-28T08:54:54.990Z,18.43
2022-11-28T08:57:22.099Z,16.20
2022-11-28T08:59:49.215Z,17.40
2022-11-28T09:02:16.330Z,14.27
2022-11-28T09:04:43.496Z,16.83
2022-11-28T09:07:11.728Z,15.50
2022-11-28T09:09:39.195Z,16.97
2022-11-28T09:12:06.402Z,16.97
2022-11-28T09:14:33.483Z,17.10
2022-11-28T09:17:00.770Z,16.13
2022-11-28T09:19:28.000Z,19.40
2022-11-28T09:21:57.867Z,16.70
2022-11-28T09:24:25.241Z,18.53
2022-11-28T09:26:52.360Z,20.33
2022-11-28T09:29:19.427Z,17.13
2022-11-28T09:31:47.698Z,18.80
2022-11-28T09:34:14.988Z,19.97
2022-11-28T09:36:42.119Z,17.63
2022-11-28T09:39:09.229Z,17.47
2022-11-28T09:41:36.375Z,17.10
2022-11-28T09:44:12.185Z,16.60
2022-11-28T09:46:39.483Z,17.37
2022-11-28T09:49:11.873Z,17.20
2022-11-28T09:51:56.186Z,17.80
2022-11-28T09:54:29.463Z,14.90
2022-11-28T09:56:56.541Z,18.27
2022-11-28T09:59:23.635Z,17.00
2022-11-28T10:01:50.776Z,18.90
2022-11-28T10:04:20.722Z,16.77
2022-11-28T10:06:47.856Z,18.13
2022-11-28T10:09:14.927Z,14.93
2022-11-28T10:11:45.053Z,17.70
2022-11-28T10:14:27.248Z,17.20
2022-11-28T10:16:59.571Z,16.40
2022-11-28T10:19:53.447Z,17.07
2022-11-28T10:22:18.229Z,16.33
2022-11-28T10:24:46.077Z,16.03
2022-11-28T10:27:13.670Z,16.60
2022-11-28T10:30:04.561Z,17.40
2022-11-28T10:32:41.804Z,24.80
2022-11-28T10:35:22.759Z,18.27
2022-11-28T10:37:54.429Z,17.43
2022-11-28T10:40:33.547Z,17.67
2022-11-28T10:43:02.307Z,16.63
2022-11-28T10:45:56.086Z,16.90
2022-11-28T10:48:40.320Z,14.93
2022-11-28T10:51:10.644Z,18.10
2022-11-28T10:53:49.771Z,15.37
2022-11-28T10:56:25.640Z,16.17
2022-11-28T10:58:56.069Z,19.23
2022-11-28T11:01:23.200Z,18.03
2022-11-28T11:03:50.338Z,17.83
2022-11-28T11:06:17.425Z,17.77
2022-11-28T11:08:45.192Z,16.40
2022-11-28T11:11:22.178Z,15.87
2022-11-28T11:13:58.627Z,17.97
2022-11-28T11:16:25.818Z,17.30
2022-11-28T11:18:53.814Z,17.87
2022-11-28T11:21:28.819Z,20.90
2022-11-28T11:24:16.163Z,16.73
2022-11-28T11:26:44.296Z,17.70
2022-11-28T11:29:20.741Z,17.30
2022-11-28T11:31:50.546Z,15.73
2022-11-28T11:34:18.280Z,15.50
2022-11-28T11:36:45.547Z,17.50
2022-11-28T11:39:12.614Z,16.87
2022-11-28T11:41:40.647Z,18.40
2022-11-28T11:44:22.924Z,16.03
2022-11-28T11:46:56.869Z,17.33
2022-11-28T11:49:30.646Z,14.33
2022-11-28T11:51:58.381Z,19.73
2022-11-28T11:54:25.491Z,15.10
2022-11-28T11:57:05.667Z,16.73
2022-11-28T11:59:43.068Z,16.70
2022-11-28T12:02:19.175Z,15.70
2022-11-28T12:04:51.130Z,16.20
2022-11-28T12:07:22.889Z,13.77
2022-11-28T12:09:50.294Z,17.60
2022-11-28T12:12:24.750Z,17.17
2022-11-28T12:14:52.651Z,17.40
2022-11-28T12:20:21.712Z,16.93
2022-11-28T12:23:07.570Z,14.67
2022-11-28T12:25:38.343Z,15.13
2022-11-28T12:28:26.749Z,15.70
2022-11-28T12:31:15.626Z,17.90
2022-11-28T12:34:01.697Z,15.13
2022-11-28T12:36:47.265Z,21.07
2022-11-28T12:39:18.451Z,30.70
2022-11-28T12:42:05.920Z,17.03
2022-11-28T12:44:48.501Z,17.27
2022-11-28T12:47:18.370Z,16.53
2022-11-28T12:49:45.891Z,16.40
2022-11-28T12:52:25.479Z,15.73
2022-11-28T12:54:58.196Z,14.93
2022-11-28T12:57:36.673Z,15.60
2022-11-28T13:00:09.266Z,17.07
2022-11-28T13:02:55.222Z,14.83
2022-11-28T13:05:41.022Z,15.83
2022-11-28T13:08:08.192Z,15.00
2022-11-28T13:10:39.846Z,14.43
2022-11-28T13:13:13.407Z,15.07
2022-11-28T13:15:43.555Z,14.93
2022-11-28T13:18:29.682Z,16.23
2022-11-28T13:20:59.665Z,14.67
2022-11-28T13:23:45.681Z,15.47
2022-11-28T13:26:23.122Z,17.47
2022-11-28T13:28:55.692Z,15.07
2022-11-28T13:31:28.124Z,15.60
2022-11-28T13:33:55.751Z,14.47
2022-11-28T13:39:42.014Z,18.13
2022-11-28T13:42:52.741Z,14.43
2022-11-28T13:45:17.528Z,14.13
2022-11-28T13:47:44.664Z,14.67
2022-11-28T13:50:24.048Z,14.63
2022-11-28T13:53:03.097Z,16.47
2022-11-28T13:55:44.857Z,14.50
2022-11-28T13:58:19.078Z,13.77
2022-11-28T14:01:15.850Z,13.87
2022-11-28T14:03:49.827Z,16.13
2022-11-28T14:06:18.290Z,14.83
2022-11-28T14:08:45.632Z,14.87
2022-11-28T14:11:27.476Z,14.70
2022-11-28T14:13:58.071Z,15.20
2022-11-28T14:16:38.673Z,15.87
2022-11-28T14:19:24.213Z,18.83
2022-11-28T14:21:57.901Z,13.50
2022-11-28T14:24:24.984Z,15.33
2022-11-28T14:26:57.495Z,13.43
2022-11-28T14:29:26.021Z,15.10
2022-11-28T14:32:21.614Z,15.60
2022-11-28T14:34:42.134Z,14.97
2022-11-28T14:37:21.812Z,16.20
2022-11-28T14:39:49.485Z,14.70
2022-11-28T14:42:36.961Z,16.13
2022-11-28T14:45:22.391Z,15.40
2022-11-28T14:48:08.397Z,14.43
2022-11-28T14:50:38.624Z,14.87
2022-11-28T14:53:28.554Z,15.40
2022-11-28T14:55:55.652Z,14.40
2022-11-28T14:58:22.834Z,15.20
2022-11-28T15:00:57.883Z,15.13
2022-11-28T15:03:27.674Z,14.97
2022-11-28T15:05:55.023Z,15.07
2022-11-28T15:08:41.128Z,15.77
2022-11-28T15:11:14.567Z,15.83
2022-11-28T15:13:53.823Z,14.50
2022-11-28T15:16:21.120Z,16.47
2022-11-28T15:18:50.618Z,15.43
2022-11-28T15:21:18.123Z,16.17
2022-11-28T15:23:46.847Z,15.63
2022-11-28T15:26:27.426Z,14.13
2022-11-28T15:29:13.154Z,15.10
2022-11-28T15:31:40.417Z,13.93
2022-11-28T15:34:10.817Z,13.37
2022-11-28T15:36:39.176Z,14.40
2022-11-28T15:39:12.805Z,16.20
2022-11-28T15:41:39.874Z,13.67
2022-11-28T15:44:06.973Z,14.90
2022-11-28T15:46:34.525Z,13.20
2022-11-28T15:49:01.795Z,14.10
2022-11-28T15:51:30.078Z,14.90
2022-11-28T15:53:57.367Z,13.87
2022-11-28T15:56:24.497Z,14.33
2022-11-28T15:58:51.792Z,14.53
2022-11-28T16:01:25.798Z,13.50
2022-11-28T16:03:52.940Z,14.93
2022-11-28T16:06:20.085Z,13.70
2022-11-28T16:08:51.436Z,14.87
2022-11-28T16:11:19.760Z,16.20
2022-11-28T16:13:46.959Z,13.43
2022-11-28T16:16:19.273Z,13.87
2022-11-28T16:18:47.566Z,17.47
2022-11-28T16:21:14.749Z,14.70
2022-11-28T16:23:41.923Z,14.07
2022-11-28T16:26:21.071Z,15.00
2022-11-28T16:28:56.781Z,18.17
2022-11-28T16:31:24.944Z,15.73
2022-11-28T16:33:52.143Z,15.87
2022-11-28T16:36:19.297Z,14.90
2022-11-28T16:38:47.275Z,16.70
2022-11-28T16:41:18.106Z,14.83
2022-11-28T16:43:47.253Z,15.63
2022-11-28T16:46:21.666Z,13.90
2022-11-28T16:48:58.268Z,13.40
2022-11-28T16:51:29.281Z,16.10
2022-11-28T16:53:58.667Z,14.97
2022-11-28T16:56:31.766Z,15.30
2022-11-28T16:59:02.552Z,18.13
2022-11-28T17:01:29.802Z,14.20
2022-11-28T17:03:57.801Z,16.80
2022-11-28T17:06:27.267Z,16.03
2022-11-28T17:08:54.420Z,18.10
2022-11-28T17:11:22.723Z,15.07
2022-11-28T17:13:49.838Z,20.23
2022-11-28T17:16:18.809Z,16.23
2022-11-28T17:18:46.142Z,19.73
2022-11-28T17:21:13.392Z,18.93
2022-11-28T17:23:41.608Z,15.63
2022-11-28T17:26:09.100Z,16.70
2022-11-28T17:28:36.313Z,14.70
2022-11-28T17:31:03.407Z,16.83
2022-11-28T17:33:30.604Z,15.17
2022-11-28T17:35:57.866Z,18.93
2022-11-28T17:38:25.082Z,16.43
2022-11-28T17:40:52.207Z,18.27
2022-11-28T17:43:20.099Z,18.23
2022-11-28T17:45:47.634Z,16.50
2022-11-28T17:48:16.114Z,15.83
2022-11-28T17:50:45.332Z,15.70
2022-11-28T17:53:12.897Z,21.10
2022-11-28T17:55:40.922Z,15.93
2022-11-28T17:58:08.978Z,16.43
2022-11-28T18:00:36.193Z,15.33
2022-11-28T18:03:03.262Z,17.70
2022-11-28T18:05:30.343Z,30.10
2022-11-28T18:07:57.649Z,23.77
2022-11-28T18:10:24.777Z,20.50
2022-11-28T18:12:52.284Z,20.47
2022-11-28T18:15:19.391Z,17.13
2022-11-28T18:17:46.865Z,24.13
2022-11-28T18:20:13.962Z,25.87
2022-11-28T18:22:41.115Z,23.70
2022-11-28T18:25:08.590Z,18.97
2022-11-28T18:27:35.740Z,16.83
2022-11-28T18:30:02.885Z,16.30
2022-11-28T18:32:30.011Z,23.97
2022-11-28T18:34:57.121Z,16.10
2022-11-28T18:37:24.194Z,17.67
2022-11-28T18:39:51.309Z,17.40
2022-11-28T18:42:18.426Z,14.43
2022-11-28T18:44:45.543Z,15.50
2022-11-28T18:47:12.670Z,16.83
2022-11-28T18:49:39.823Z,15.03
2022-11-28T18:52:06.975Z,16.40
2022-11-28T18:54:34.275Z,15.53
2022-11-28T18:57:01.425Z,16.60
2022-11-28T18:59:28.498Z,16.93
2022-11-28T19:01:55.662Z,16.63
2022-11-28T19:04:22.858Z,16.07
2022-11-28T19:06:49.979Z,17.43
2022-11-28T19:09:17.312Z,16.10
2022-11-28T19:11:44.517Z,19.13
2022-11-28T19:14:14.802Z,17.87
2022-11-28T19:16:43.164Z,18.37
2022-11-28T19:19:10.464Z,18.73
2022-11-28T19:21:37.669Z,17.17
2022-11-28T19:24:05.152Z,25.23
2022-11-28T19:26:34.034Z,44.67
2022-11-28T19:29:01.235Z,23.90
2022-11-28T19:31:29.177Z,24.90
2022-11-28T19:34:03.393Z,25.70
2022-11-28T19:36:31.739Z,22.20
2022-11-28T19:38:59.446Z,20.43
2022-11-28T19:41:26.532Z,18.73
2022-11-28T19:43:53.660Z,22.87
2022-11-28T19:46:20.865Z,17.47
2022-11-28T19:48:48.024Z,17.60
2022-11-28T19:51:15.937Z,18.07
2022-11-28T19:53:43.089Z,23.23
2022-11-28T19:56:14.441Z,39.33
2022-11-28T19:58:41.671Z,34.67
2022-11-28T20:01:09.920Z,33.73
2022-11-28T20:03:37.353Z,21.30
2022-11-28T20:06:24.820Z,32.40
2022-11-28T20:08:52.379Z,57.90
2022-11-28T20:11:20.345Z,40.63
2022-11-28T20:13:47.586Z,50.40
2022-11-28T20:16:15.546Z,50.97
2022-11-28T20:18:43.091Z,45.37
2022-11-28T20:21:11.022Z,31.87
2022-11-28T20:23:41.993Z,23.17
2022-11-28T20:26:09.207Z,21.83
2022-11-28T20:28:36.708Z,19.53
2022-11-28T20:31:03.938Z,19.97
2022-11-28T20:33:31.047Z,21.50
2022-11-28T20:36:11.003Z,18.27
2022-11-28T20:38:38.119Z,18.13
2022-11-28T20:41:05.777Z,17.53
2022-11-28T20:43:33.027Z,19.80
2022-11-28T20:46:03.930Z,18.50
2022-11-28T20:48:31.125Z,19.50
2022-11-28T20:50:58.390Z,19.50
2022-11-28T20:53:27.073Z,21.23
2022-11-28T20:56:01.311Z,17.67
2022-11-28T20:58:28.526Z,17.60
2022-11-28T21:00:55.709Z,17.50
2022-11-28T21:03:22.927Z,19.33
2022-11-28T21:05:50.084Z,17.40
2022-11-28T21:08:17.259Z,18.20
2022-11-28T21:10:44.382Z,17.67
2022-11-28T21:13:11.619Z,16.80
2022-11-28T21:15:48.091Z,16.87
2022-11-28T21:18:16.087Z,18.13
2022-11-28T21:20:45.310Z,15.87
2022-11-28T21:23:12.638Z,16.27
2022-11-28T21:25:39.853Z,17.33
2022-11-28T21:28:06.999Z,22.10
2022-11-28T21:30:34.134Z,16.37
2022-11-28T21:33:01.313Z,16.63
2022-11-28T21:35:28.386Z,17.13
2022-11-28T21:37:57.003Z,16.80
2022-11-28T21:40:24.226Z,19.63
2022-11-28T21:42:51.355Z,16.20
2022-11-28T21:45:18.636Z,17.60
2022-11-28T21:47:45.898Z,17.83
2022-11-28T21:50:13.342Z,16.13
2022-11-28T21:52:40.415Z,16.57
2022-11-28T21:55:07.650Z,18.97
2022-11-28T21:57:34.783Z,17.37
2022-11-28T22:00:02.256Z,18.63
2022-11-28T22:02:30.991Z,16.93
2022-11-28T22:04:59.253Z,18.20
2022-11-28T22:07:26.362Z,20.77
2022-11-28T22:09:54.190Z,21.67
2022-11-28T22:12:21.276Z,22.07
2022-11-28T22:14:48.751Z,21.40
2022-11-28T22:17:16.093Z,20.33
2022-11-28T22:19:43.253Z,20.60
2022-11-28T22:22:10.397Z,20.47
2022-11-28T22:24:37.571Z,19.50
2022-11-28T22:27:04.736Z,17.77
2022-11-28T22:29:31.883Z,19.60
2022-11-28T22:31:59.162Z,18.00
2022-11-28T22:34:26.452Z,19.77
2022-11-28T22:36:53.526Z,19.47
2022-11-28T22:39:20.633Z,15.33
2022-11-28T22:41:47.728Z,17.87
2022-11-28T22:44:14.801Z,18.97
2022-11-28T22:46:41.893Z,17.10
2022-11-28T22:49:09.681Z,18.43
2022-11-28T22:51:37.076Z,17.00
2022-11-28T22:54:04.323Z,18.77
2022-11-28T22:56:32.122Z,19.03
2022-11-28T22:58:59.324Z,18.20
2022-11-28T23:01:27.254Z,19.00
2022-11-28T23:03:54.865Z,19.30
2022-11-28T23:06:23.051Z,18.10
2022-11-28T23:08:50.262Z,19.17
2022-11-28T23:11:18.249Z,17.27
2022-11-28T23:13:45.598Z,21.47
2022-11-28T23:16:23.015Z,19.23
2022-11-28T23:18:51.271Z,16.50
2022-11-28T23:21:18.599Z,20.50
2022-11-28T23:23:46.063Z,18.93
2022-11-28T23:26:14.734Z,18.30
2022-11-28T23:28:41.927Z,19.50
2022-11-28T23:31:10.720Z,17.30
2022-11-28T23:33:38.109Z,15.40
2022-11-28T23:36:20.404Z,17.00
2022-11-28T23:38:47.938Z,17.10
2022-11-28T23:41:15.100Z,17.63
2022-11-28T23:43:42.350Z,19.67
2022-11-28T23:46:10.123Z,15.30
2022-11-28T23:48:37.492Z,17.83
2022-11-28T23:51:06.435Z,16.30
2022-11-28T23:53:34.065Z,17.30
2022-11-28T23:56:11.060Z,17.23
2022-11-28T23:58:38.198Z,16.67
